Time;durP1;ratioP1;P1;durP2;ratioP2;P2;SDS_P1;SDS_P2;PMS_P1;PMS_P2;Temp;Humidity;BMP_temperature;BMP_pressure;BME280_temperature;BME280_humidity;BME280_pressure;Samples;Min_cycle;Max_cycle;Signal;HPM_P1;HPM_P2
2023/03/12 00:01:11;;;;;;;;;;;;;;;0.46;100.00;95216.00;10395671;28;2244;-69
2023/03/12 00:06:14;;;;;;;;;;;;;;;0.40;100.00;95222.19;10401873;28;2402;-69
2023/03/12 00:11:16;;;;;;;;;;;;;;;0.53;100.00;95210.63;10403603;28;2927;-69
2023/03/12 00:16:21;;;;;;;;;;;;;;;0.50;100.00;95209.22;10397034;28;2913;-67
2023/03/12 00:21:24;;;;;;;;;;;;;;;0.50;100.00;95221.66;10393891;28;2326;-68
2023/03/12 00:26:27;;;;;;;;;;;;;;;0.50;100.00;95201.28;10394552;28;2915;-66
2023/03/12 00:31:33;;;;;;;;;;;;;;;0.31;100.00;95210.28;10389134;28;2910;-68
2023/03/12 00:36:36;;;;;;;;;;;;;;;-0.04;100.00;95210.94;10395156;28;2997;-67
2023/03/12 00:41:39;;;;;;;;;;;;;;;-0.14;100.00;95221.19;10398144;28;2961;-68
2023/03/12 00:46:41;;;;;;;;;;;;;;;-0.16;100.00;95217.19;10392056;28;2902;-68
2023/03/12 00:51:44;;;;;;;;;;;;;;;-0.31;100.00;95220.19;10401045;28;2993;-69
2023/03/12 00:56:47;;;;;;;;;;;;;;;-0.48;100.00;95216.50;10402677;28;2963;-69
2023/03/12 01:01:49;;;;;;;;;;;;;;;-0.52;100.00;95215.31;10398909;28;2906;-68
2023/03/12 01:06:51;;;;;;;;;;;;;;;-0.55;100.00;95219.19;10407434;28;2857;-66
2023/03/12 01:11:54;;;;;;;;;;;;;;;-0.60;100.00;95221.69;10403724;28;2839;-68
2023/03/12 01:16:57;;;;;;;;;;;;;;;-0.48;100.00;95219.13;10402031;28;3216;-68
2023/03/12 01:21:59;;;;;;;;;;;;;;;-0.23;100.00;95221.72;10399507;28;2886;-72
2023/03/12 01:27:02;;;;;;;;;;;;;;;-0.35;100.00;95226.91;10397506;28;2905;-67
2023/03/12 01:32:04;;;;;;;;;;;;;;;-0.35;100.00;95226.91;10402558;28;2957;-69
2023/03/12 01:37:07;;;;;;;;;;;;;;;-0.29;100.00;95239.25;10404634;28;2910;-67
2023/03/12 01:42:09;;;;;;;;;;;;;;;-0.09;100.00;95229.28;10389854;28;2935;-67
2023/03/12 01:47:12;;;;;;;;;;;;;;;0.16;100.00;95231.03;10394209;28;2324;-68
2023/03/12 01:52:15;;;;;;;;;;;;;;;0.42;100.00;95219.31;10398406;28;2840;-67
2023/03/12 01:57:17;;;;;;;;;;;;;;;0.62;100.00;95211.91;10400263;28;2871;-69
2023/03/12 02:02:25;;;;;;;;;;;;;;;0.66;100.00;95212.28;10400375;28;2806;-68
2023/03/12 02:07:28;;;;;;;;;;;;;;;0.78;100.00;95208.66;10396813;28;2946;-67
2023/03/12 02:12:34;;;;;;;;;;;;;;;0.82;100.00;95217.72;10390899;28;2969;-68
2023/03/12 02:17:36;;;;;;;;;;;;;;;0.85;100.00;95231.56;10398701;28;2256;-68
2023/03/12 02:22:39;;;;;;;;;;;;;;;0.89;100.00;95236.19;10393534;28;3084;-67
2023/03/12 02:27:41;;;;;;;;;;;;;;;0.89;100.00;95251.22;10396666;28;2850;-66
2023/03/12 02:32:44;;;;;;;;;;;;;;;0.82;100.00;95246.03;10398444;28;2358;-67
2023/03/12 02:37:46;;;;;;;;;;;;;;;0.56;100.00;95251.69;10394869;28;2950;-66
2023/03/12 02:42:49;;;;;;;;;;;;;;;0.35;100.00;95251.13;10404778;28;2859;-68
2023/03/12 02:47:51;;;;;;;;;;;;;;;0.13;100.00;95252.63;10394529;28;2987;-68
2023/03/12 02:52:54;;;;;;;;;;;;;;;0.03;100.00;95247.84;10398145;28;2843;-68
2023/03/12 02:57:56;;;;;;;;;;;;;;;-0.10;100.00;95254.09;10402157;28;2281;-67
2023/03/12 03:02:59;;;;;;;;;;;;;;;-0.07;100.00;95256.28;10396859;28;2950;-68
2023/03/12 03:08:01;;;;;;;;;;;;;;;0.01;100.00;95259.69;10405501;28;3000;-67
2023/03/12 03:13:04;;;;;;;;;;;;;;;0.12;100.00;95256.28;10406957;28;2906;-68
2023/03/12 03:18:17;;;;;;;;;;;;;;;0.12;100.00;95261.56;10404559;28;2931;-68
2023/03/12 03:23:19;;;;;;;;;;;;;;;0.19;100.00;95264.94;10403983;28;2291;-68
2023/03/12 03:28:23;;;;;;;;;;;;;;;0.36;100.00;95267.81;10399391;28;3198;-68
2023/03/12 03:33:25;;;;;;;;;;;;;;;0.48;100.00;95269.47;10394113;28;2975;-68
2023/03/12 03:38:27;;;;;;;;;;;;;;;0.56;100.00;95259.63;10400337;28;2981;-68
2023/03/12 03:43:30;;;;;;;;;;;;;;;0.64;100.00;95264.63;10401345;28;2794;-68
2023/03/12 03:48:33;;;;;;;;;;;;;;;0.73;100.00;95269.34;10396451;28;3287;-68
2023/03/12 03:53:36;;;;;;;;;;;;;;;0.76;100.00;95273.38;10395362;28;2922;-67
2023/03/12 03:58:38;;;;;;;;;;;;;;;0.86;100.00;95272.84;10394047;28;2885;-67
2023/03/12 04:03:41;;;;;;;;;;;;;;;0.89;100.00;95282.97;10387150;28;3036;-67
2023/03/12 04:08:43;;;;;;;;;;;;;;;0.96;100.00;95287.16;10394801;28;2863;-67
2023/03/12 04:13:47;;;;;;;;;;;;;;;1.01;100.00;95287.28;10398434;28;2981;-68
2023/03/12 04:18:50;;;;;;;;;;;;;;;1.04;100.00;95292.13;10425673;28;2964;-67
2023/03/12 04:23:52;;;;;;;;;;;;;;;1.08;100.00;95298.59;10389025;28;2846;-70
2023/03/12 04:28:55;;;;;;;;;;;;;;;1.19;100.00;95304.94;10385852;28;2956;-68
2023/03/12 04:33:57;;;;;;;;;;;;;;;1.22;100.00;95299.22;10389659;28;2336;-69
2023/03/12 04:39:00;;;;;;;;;;;;;;;1.22;100.00;95298.41;10392631;28;2930;-67
2023/03/12 04:44:03;;;;;;;;;;;;;;;1.22;100.00;95303.72;10401491;28;2859;-68
2023/03/12 04:49:05;;;;;;;;;;;;;;;1.25;100.00;95300.59;10391167;28;2989;-67
2023/03/12 04:54:08;;;;;;;;;;;;;;;1.27;100.00;95295.88;10401821;28;2878;-66
2023/03/12 04:59:10;;;;;;;;;;;;;;;1.30;100.00;95290.94;10400059;28;2347;-68
2023/03/12 05:04:13;;;;;;;;;;;;;;;1.27;100.00;95283.47;10390466;28;2930;-68
2023/03/12 05:09:16;;;;;;;;;;;;;;;1.38;100.00;95276.56;10392437;28;2885;-67
2023/03/12 05:14:19;;;;;;;;;;;;;;;1.38;100.00;95273.09;10394274;28;2948;-68
2023/03/12 05:19:22;;;;;;;;;;;;;;;1.33;100.00;95274.56;10393740;28;2343;-66
2023/03/12 05:24:24;;;;;;;;;;;;;;;1.25;100.00;95263.53;10389818;28;2893;-67
2023/03/12 05:29:28;;;;;;;;;;;;;;;1.26;100.00;95268.59;10390140;28;2842;-67
2023/03/12 05:34:30;;;;;;;;;;;;;;;1.39;100.00;95272.88;10389514;28;2846;-68
2023/03/12 05:39:33;;;;;;;;;;;;;;;1.46;100.00;95284.16;10400400;28;2945;-68
2023/03/12 05:44:40;;;;;;;;;;;;;;;1.61;100.00;95287.19;10405634;28;2992;-69
2023/03/12 05:49:44;;;;;;;;;;;;;;;1.70;100.00;95278.88;10398686;28;2866;-70
2023/03/12 05:54:46;;;;;;;;;;;;;;;1.89;100.00;95285.69;10403469;28;2846;-69
2023/03/12 05:59:49;;;;;;;;;;;;;;;2.05;100.00;95295.59;10432491;28;2867;-68
2023/03/12 06:04:52;;;;;;;;;;;;;;;2.26;100.00;95285.44;10395755;28;3293;-72
2023/03/12 06:09:55;;;;;;;;;;;;;;;2.40;100.00;95279.63;10401052;28;2914;-72
2023/03/12 06:14:57;;;;;;;;;;;;;;;2.50;100.00;95281.69;10402282;28;2874;-73
2023/03/12 06:20:00;;;;;;;;;;;;;;;2.76;100.00;95266.25;10406637;28;2906;-68
2023/03/12 06:25:02;;;;;;;;;;;;;;;2.81;100.00;95259.22;10396144;28;2383;-68
2023/03/12 06:30:05;;;;;;;;;;;;;;;2.84;100.00;95257.91;10394667;28;2914;-72
2023/03/12 06:35:08;;;;;;;;;;;;;;;2.97;100.00;95258.44;10392304;28;2335;-71
2023/03/12 06:40:11;;;;;;;;;;;;;;;3.02;100.00;95272.84;10398331;28;2970;-70
2023/03/12 06:45:16;;;;;;;;;;;;;;;3.25;100.00;95257.59;10400872;28;2918;-73
2023/03/12 06:50:19;;;;;;;;;;;;;;;3.46;100.00;95276.53;10390643;28;2329;-73
2023/03/12 06:55:21;;;;;;;;;;;;;;;3.43;100.00;95283.13;10399130;28;2851;-68
2023/03/12 07:00:34;;;;;;;;;;;;;;;3.40;100.00;95298.75;10390783;28;2814;-70
2023/03/12 07:05:37;;;;;;;;;;;;;;;3.46;100.00;95300.44;10403270;28;2890;-72
2023/03/12 07:10:39;;;;;;;;;;;;;;;3.54;100.00;95302.69;10404596;28;2906;-69
2023/03/12 07:15:43;;;;;;;;;;;;;;;3.85;100.00;95300.53;10399293;28;2929;-69
2023/03/12 07:20:56;;;;;;;;;;;;;;;3.96;100.00;95299.66;10399095;28;2947;-69
2023/03/12 07:26:04;;;;;;;;;;;;;;;4.13;100.00;95308.38;10394606;28;2516;-71
2023/03/12 07:31:14;;;;;;;;;;;;;;;4.06;100.00;95308.56;10395255;28;2890;-72
2023/03/12 07:36:20;;;;;;;;;;;;;;;4.17;100.00;95292.75;10396714;28;3248;-71
2023/03/12 07:41:25;;;;;;;;;;;;;;;4.70;100.00;95291.31;10391683;28;3270;-71
2023/03/12 07:46:27;;;;;;;;;;;;;;;4.94;100.00;95294.50;10399898;28;2846;-70
2023/03/12 07:51:30;;;;;;;;;;;;;;;5.10;100.00;95298.97;10395996;28;2366;-69
2023/03/12 07:56:34;;;;;;;;;;;;;;;5.06;100.00;95289.84;10397385;28;3144;-71
2023/03/12 08:01:37;;;;;;;;;;;;;;;5.04;100.00;95300.78;10394634;28;3183;-70
2023/03/12 08:06:41;;;;;;;;;;;;;;;5.21;100.00;95303.31;10402856;28;3119;-69
2023/03/12 08:11:44;;;;;;;;;;;;;;;5.14;100.00;95300.84;10399202;28;3104;-68
2023/03/12 08:16:46;;;;;;;;;;;;;;;5.50;100.00;95311.06;10394150;28;3191;-73
2023/03/12 08:21:50;;;;;;;;;;;;;;;5.39;100.00;95302.97;10396033;28;2440;-69
2023/03/12 08:26:53;;;;;;;;;;;;;;;5.45;100.00;95311.03;10405464;28;3172;-70
2023/03/12 08:31:56;;;;;;;;;;;;;;;5.70;100.00;95313.91;10404043;28;3163;-69
2023/03/12 08:37:07;;;;;;;;;;;;;;;5.79;100.00;95315.06;10397795;28;2336;-67
2023/03/12 08:42:09;;;;;;;;;;;;;;;5.75;100.00;95313.97;10406258;28;3520;-69
2023/03/12 08:47:12;;;;;;;;;;;;;;;5.66;100.00;95318.13;10426389;28;3208;-67
2023/03/12 08:52:16;;;;;;;;;;;;;;;5.88;100.00;95329.53;10385198;28;2326;-71
2023/03/12 08:57:18;;;;;;;;;;;;;;;5.78;100.00;95329.44;10381893;28;3188;-68
2023/03/12 09:02:21;;;;;;;;;;;;;;;5.87;100.00;95333.28;10394276;28;3281;-69
2023/03/12 09:07:24;;;;;;;;;;;;;;;5.39;100.00;95342.97;10392546;28;3124;-69
2023/03/12 09:12:27;;;;;;;;;;;;;;;5.59;100.00;95353.00;10403901;28;2298;-68
2023/03/12 09:17:29;;;;;;;;;;;;;;;5.57;100.00;95344.47;10407903;28;3045;-68
2023/03/12 09:22:32;;;;;;;;;;;;;;;5.46;100.00;95352.63;10400911;28;3549;-68
2023/03/12 09:27:35;;;;;;;;;;;;;;;5.96;100.00;95353.09;10406096;28;3199;-69
2023/03/12 09:32:37;;;;;;;;;;;;;;;5.72;100.00;95351.78;10397765;28;3128;-69
2023/03/12 09:37:40;;;;;;;;;;;;;;;5.79;100.00;95368.41;10396233;28;3191;-69
2023/03/12 09:42:43;;;;;;;;;;;;;;;5.27;100.00;95376.94;10404890;28;3234;-69
2023/03/12 09:47:48;;;;;;;;;;;;;;;5.10;100.00;95377.03;10398590;28;2360;-69
2023/03/12 09:52:51;;;;;;;;;;;;;;;5.07;100.00;95380.19;10401774;28;2270;-71
2023/03/12 09:57:55;;;;;;;;;;;;;;;4.91;100.00;95383.72;10408294;28;3221;-69
2023/03/12 10:02:57;;;;;;;;;;;;;;;4.77;100.00;95383.28;10400915;28;2302;-69
2023/03/12 10:08:00;;;;;;;;;;;;;;;4.87;100.00;95383.41;10404313;28;3228;-68
2023/03/12 10:13:23;;;;;;;;;;;;;;;4.87;100.00;95378.06;10406212;28;3211;-70
2023/03/12 10:18:26;;;;;;;;;;;;;;;4.89;100.00;95375.97;10402624;28;3540;-71
2023/03/12 10:23:29;;;;;;;;;;;;;;;5.03;100.00;95375.63;10403127;28;3256;-67
2023/03/12 10:28:32;;;;;;;;;;;;;;;5.09;100.00;95378.09;10400690;28;2251;-76
2023/03/12 10:33:35;;;;;;;;;;;;;;;5.05;100.00;95382.28;10405193;28;3174;-70
2023/03/12 10:38:39;;;;;;;;;;;;;;;4.84;100.00;95377.78;10400603;28;3228;-68
2023/03/12 10:43:41;;;;;;;;;;;;;;;4.89;100.00;95378.63;10405094;28;3105;-72
2023/03/12 10:48:44;;;;;;;;;;;;;;;4.80;100.00;95384.63;10394108;28;3140;-73
2023/03/12 10:53:47;;;;;;;;;;;;;;;4.56;100.00;95382.19;10393691;28;3246;-70
2023/03/12 10:58:50;;;;;;;;;;;;;;;4.60;100.00;95382.50;10395273;28;2312;-71
2023/03/12 11:03:53;;;;;;;;;;;;;;;4.72;100.00;95383.22;10400116;28;3195;-70
2023/03/12 11:08:55;;;;;;;;;;;;;;;5.04;100.00;95377.22;10398251;28;3225;-69
2023/03/12 11:14:17;;;;;;;;;;;;;;;5.64;100.00;95376.25;10392132;28;3203;-70
2023/03/12 11:19:20;;;;;;;;;;;;;;;5.68;100.00;95367.50;10405165;28;3136;-69
2023/03/12 11:24:23;;;;;;;;;;;;;;;5.79;100.00;95363.09;10396518;28;3121;-70
2023/03/12 11:29:25;;;;;;;;;;;;;;;6.05;100.00;95361.47;10394445;28;3176;-74
2023/03/12 11:34:28;;;;;;;;;;;;;;;5.62;100.00;95363.19;10383073;28;3071;-72
2023/03/12 11:39:31;;;;;;;;;;;;;;;5.46;100.00;95364.06;10389669;28;2247;-71
2023/03/12 11:44:34;;;;;;;;;;;;;;;5.60;100.00;95364.50;10389831;28;2334;-73
2023/03/12 11:49:36;;;;;;;;;;;;;;;5.62;100.00;95367.72;10391871;28;3137;-70
2023/03/12 11:54:39;;;;;;;;;;;;;;;5.45;100.00;95362.47;10398080;28;2366;-70
2023/03/12 11:59:42;;;;;;;;;;;;;;;5.64;100.00;95361.06;10397365;28;3175;-69
2023/03/12 12:04:44;;;;;;;;;;;;;;;5.62;100.00;95352.53;10392872;28;3142;-69
2023/03/12 12:09:48;;;;;;;;;;;;;;;5.81;100.00;95355.63;10401914;28;3178;-71
2023/03/12 12:14:55;;;;;;;;;;;;;;;5.91;100.00;95358.41;10402889;28;2382;-69
2023/03/12 12:19:57;;;;;;;;;;;;;;;5.83;100.00;95356.16;10400542;28;2274;-72
2023/03/12 12:25:00;;;;;;;;;;;;;;;5.90;100.00;95358.63;10416208;28;2322;-72
2023/03/12 12:30:06;;;;;;;;;;;;;;;6.03;100.00;95344.09;10400696;28;3089;-71
2023/03/12 12:35:08;;;;;;;;;;;;;;;6.35;100.00;95350.19;10396151;28;3331;-72
2023/03/12 12:40:15;;;;;;;;;;;;;;;6.43;100.00;95341.72;10400122;28;3131;-71
2023/03/12 12:45:17;;;;;;;;;;;;;;;6.66;100.00;95337.03;10405122;28;2285;-70
2023/03/12 12:50:20;;;;;;;;;;;;;;;6.76;100.00;95339.75;10404759;28;3182;-69
2023/03/12 12:55:24;;;;;;;;;;;;;;;7.00;100.00;95335.59;10397571;28;3159;-71
2023/03/12 13:00:26;;;;;;;;;;;;;;;7.12;100.00;95326.53;10394774;28;3223;-72
2023/03/12 13:05:29;;;;;;;;;;;;;;;7.27;100.00;95329.25;10406943;28;2345;-72
2023/03/12 13:10:32;;;;;;;;;;;;;;;7.81;100.00;95318.09;10400428;28;3191;-73
2023/03/12 13:15:38;;;;;;;;;;;;;;;8.24;100.00;95319.44;10409893;28;3193;-71
2023/03/12 13:20:41;;;;;;;;;;;;;;;8.53;100.00;95311.66;10408055;28;3302;-72
2023/03/12 13:25:45;;;;;;;;;;;;;;;8.81;100.00;95309.44;10412241;28;3142;-71
2023/03/12 13:30:47;;;;;;;;;;;;;;;8.95;100.00;95307.78;10420472;28;3123;-71
2023/03/12 13:35:50;;;;;;;;;;;;;;;9.09;100.00;95314.13;10412188;28;2395;-70
2023/03/12 13:40:53;;;;;;;;;;;;;;;9.21;100.00;95308.44;10407655;28;3171;-70
2023/03/12 13:45:55;;;;;;;;;;;;;;;9.33;100.00;95319.66;10412478;28;3096;-70
2023/03/12 13:50:58;;;;;;;;;;;;;;;9.57;100.00;95305.59;10422406;28;2405;-73
2023/03/12 13:56:03;;;;;;;;;;;;;;;9.59;100.00;95309.56;10414926;28;2310;-73
2023/03/12 14:01:06;;;;;;;;;;;;;;;9.44;100.00;95323.09;10419023;28;2287;-72
2023/03/12 14:06:08;;;;;;;;;;;;;;;9.16;100.00;95324.56;10420425;28;3202;-72
2023/03/12 14:11:11;;;;;;;;;;;;;;;9.39;100.00;95321.25;10416472;28;3099;-71
2023/03/12 14:16:14;;;;;;;;;;;;;;;9.67;100.00;95319.75;10412287;28;2223;-73
2023/03/12 14:21:16;;;;;;;;;;;;;;;9.43;100.00;95316.13;10408788;28;3190;-74
2023/03/12 14:26:19;;;;;;;;;;;;;;;9.65;100.00;95313.03;10402236;28;3232;-71
2023/03/12 14:31:22;;;;;;;;;;;;;;;10.12;100.00;95303.56;10400060;28;2281;-70
2023/03/12 14:36:25;;;;;;;;;;;;;;;9.99;100.00;95302.34;10405468;28;3171;-70
2023/03/12 14:41:38;;;;;;;;;;;;;;;9.59;100.00;95298.84;10405871;28;3183;-71
2023/03/12 14:46:41;;;;;;;;;;;;;;;9.47;100.00;95298.38;10400336;28;3131;-69
2023/03/12 14:51:45;;;;;;;;;;;;;;;9.46;100.00;95291.41;10400349;28;3233;-70
2023/03/12 14:56:48;;;;;;;;;;;;;;;9.15;100.00;95296.16;10399447;28;2268;-71
2023/03/12 15:01:51;;;;;;;;;;;;;;;8.68;100.00;95307.34;10403844;28;2324;-67
2023/03/12 15:06:54;;;;;;;;;;;;;;;8.25;100.00;95312.22;10397886;28;3159;-69
2023/03/12 15:11:57;;;;;;;;;;;;;;;8.00;100.00;95324.53;10403452;28;3151;-70
2023/03/12 15:16:59;;;;;;;;;;;;;;;7.75;100.00;95325.31;10394160;28;2281;-70
2023/03/12 15:22:02;;;;;;;;;;;;;;;7.79;100.00;95325.59;10397836;28;3179;-70
2023/03/12 15:27:05;;;;;;;;;;;;;;;7.83;100.00;95332.03;10399457;28;2356;-71
2023/03/12 15:32:08;;;;;;;;;;;;;;;7.82;100.00;95335.75;10399485;28;3179;-69
2023/03/12 15:37:13;;;;;;;;;;;;;;;7.83;100.00;95334.72;10403537;28;3267;-71
2023/03/12 15:42:15;;;;;;;;;;;;;;;7.97;100.00;95325.09;10399028;28;2365;-71
2023/03/12 15:47:18;;;;;;;;;;;;;;;8.08;100.00;95324.03;10393636;28;3556;-70
2023/03/12 15:52:21;;;;;;;;;;;;;;;8.06;100.00;95318.09;10403700;28;2322;-70
2023/03/12 15:57:24;;;;;;;;;;;;;;;8.20;100.00;95309.53;10407576;28;2333;-70
2023/03/12 16:02:27;;;;;;;;;;;;;;;8.28;100.00;95298.28;10416067;28;3220;-70
2023/03/12 16:07:29;;;;;;;;;;;;;;;8.30;100.00;95298.81;10401026;28;2397;-70
2023/03/12 16:12:32;;;;;;;;;;;;;;;8.28;100.00;95303.66;10414148;28;3084;-72
2023/03/12 16:17:35;;;;;;;;;;;;;;;8.27;100.00;95316.25;10400328;28;2372;-71
2023/03/12 16:22:38;;;;;;;;;;;;;;;8.25;100.00;95317.56;10390872;28;3128;-70
2023/03/12 16:27:41;;;;;;;;;;;;;;;8.28;100.00;95317.03;10397058;28;3160;-70
2023/03/12 16:32:45;;;;;;;;;;;;;;;8.27;100.00;95332.31;10409113;28;3130;-70
2023/03/12 16:37:48;;;;;;;;;;;;;;;8.27;100.00;95315.41;10400280;28;3186;-69
2023/03/12 16:42:50;;;;;;;;;;;;;;;8.09;100.00;95314.91;10398104;28;3192;-69
2023/03/12 16:47:52;;;;;;;;;;;;;;;7.95;100.00;95305.00;10397014;28;3171;-69
2023/03/12 16:52:55;;;;;;;;;;;;;;;7.83;100.00;95307.97;10396884;28;3128;-68
2023/03/12 16:57:58;;;;;;;;;;;;;;;7.80;100.00;95321.84;10398273;28;2249;-71
2023/03/12 17:03:01;;;;;;;;;;;;;;;7.74;100.00;95329.06;10398317;28;3244;-69
2023/03/12 17:08:04;;;;;;;;;;;;;;;7.62;100.00;95322.38;10397913;28;3211;-69
2023/03/12 17:13:07;;;;;;;;;;;;;;;7.44;100.00;95334.38;10394210;28;3306;-69
2023/03/12 17:18:09;;;;;;;;;;;;;;;7.37;100.00;95360.56;10401397;28;3226;-72
2023/03/12 17:23:12;;;;;;;;;;;;;;;7.24;100.00;95351.16;10403091;28;3190;-69
2023/03/12 17:28:15;;;;;;;;;;;;;;;7.11;100.00;95362.34;10404311;28;3171;-68
2023/03/12 17:33:17;;;;;;;;;;;;;;;6.91;100.00;95363.06;10409582;28;2310;-69
2023/03/12 17:38:20;;;;;;;;;;;;;;;6.74;100.00;95369.41;10404482;28;3239;-72
2023/03/12 17:43:23;;;;;;;;;;;;;;;6.60;100.00;95372.78;10413534;28;3299;-68
2023/03/12 17:48:27;;;;;;;;;;;;;;;6.54;100.00;95379.16;10408877;28;3535;-70
2023/03/12 17:53:40;;;;;;;;;;;;;;;6.52;100.00;95368.72;10403445;28;3251;-74
2023/03/12 17:58:53;;;;;;;;;;;;;;;6.55;100.00;95370.06;10408480;28;3329;-73
2023/03/12 18:03:55;;;;;;;;;;;;;;;6.60;100.00;95373.56;10404752;28;3329;-75
2023/03/12 18:08:58;;;;;;;;;;;;;;;6.68;100.00;95378.47;10403995;28;3328;-71
2023/03/12 18:14:01;;;;;;;;;;;;;;;6.70;100.00;95383.53;10410841;28;3123;-70
2023/03/12 18:19:04;;;;;;;;;;;;;;;6.53;100.00;95388.22;10408131;28;2341;-69
2023/03/12 18:24:06;;;;;;;;;;;;;;;6.35;100.00;95381.41;10406878;28;3182;-69
2023/03/12 18:29:16;;;;;;;;;;;;;;;6.25;100.00;95390.19;10402512;28;3299;-70
2023/03/12 18:34:19;;;;;;;;;;;;;;;6.27;100.00;95382.72;10410734;28;3143;-69
2023/03/12 18:39:22;;;;;;;;;;;;;;;6.15;100.00;95380.22;10407486;28;3199;-72
2023/03/12 18:44:25;;;;;;;;;;;;;;;6.17;100.00;95380.78;10409898;28;3218;-70
2023/03/12 18:49:27;;;;;;;;;;;;;;;6.12;100.00;95385.28;10410631;28;3120;-70
2023/03/12 18:54:32;;;;;;;;;;;;;;;6.05;100.00;95392.69;10425550;28;3127;-68
2023/03/12 18:59:35;;;;;;;;;;;;;;;6.02;100.00;95395.84;10404904;28;2385;-70
2023/03/12 19:04:38;;;;;;;;;;;;;;;6.06;100.00;95410.31;10404752;28;3320;-70
2023/03/12 19:09:40;;;;;;;;;;;;;;;6.04;100.00;95407.06;10397499;28;3238;-71
2023/03/12 19:14:43;;;;;;;;;;;;;;;5.95;100.00;95410.19;10405863;28;3188;-69
2023/03/12 19:19:45;;;;;;;;;;;;;;;5.93;100.00;95417.66;10408439;28;3211;-68
2023/03/12 19:24:48;;;;;;;;;;;;;;;5.90;100.00;95422.66;10401532;28;3230;-69
2023/03/12 19:29:52;;;;;;;;;;;;;;;6.05;100.00;95433.50;10396126;28;3100;-69
2023/03/12 19:34:54;;;;;;;;;;;;;;;6.04;100.00;95433.75;10401055;28;2297;-69
2023/03/12 19:39:56;;;;;;;;;;;;;;;5.97;100.00;95440.09;10403496;28;3123;-69
2023/03/12 19:44:59;;;;;;;;;;;;;;;6.00;100.00;95449.47;10400623;28;3190;-70
2023/03/12 19:50:02;;;;;;;;;;;;;;;5.94;100.00;95443.28;10404211;28;3136;-69
2023/03/12 19:55:05;;;;;;;;;;;;;;;5.90;100.00;95439.47;10403888;28;3241;-69
2023/03/12 20:00:10;;;;;;;;;;;;;;;5.87;100.00;95447.19;10401022;28;3228;-68
2023/03/12 20:05:14;;;;;;;;;;;;;;;5.89;100.00;95453.06;10395099;28;3193;-76
2023/03/12 20:10:17;;;;;;;;;;;;;;;5.96;100.00;95449.16;10393998;28;3240;-69
2023/03/12 20:15:25;;;;;;;;;;;;;;;6.05;100.00;95457.53;10399053;28;3536;-68
2023/03/12 20:20:28;;;;;;;;;;;;;;;6.12;100.00;95466.13;10395965;28;2261;-68
2023/03/12 20:25:31;;;;;;;;;;;;;;;6.13;100.00;95458.94;10400886;28;3104;-73
2023/03/12 20:30:34;;;;;;;;;;;;;;;6.18;100.00;95467.00;10398728;28;2368;-69
2023/03/12 20:35:37;;;;;;;;;;;;;;;6.19;100.00;95463.25;10404088;28;3318;-70
2023/03/12 20:40:40;;;;;;;;;;;;;;;6.18;100.00;95467.00;10399597;28;3317;-70
2023/03/12 20:45:42;;;;;;;;;;;;;;;6.16;100.00;95456.53;10398803;28;3257;-69
2023/03/12 20:50:45;;;;;;;;;;;;;;;6.20;100.00;95459.53;10398803;28;3144;-69
2023/03/12 20:55:47;;;;;;;;;;;;;;;6.17;100.00;95455.50;10398911;28;3282;-70
2023/03/12 21:00:50;;;;;;;;;;;;;;;6.18;100.00;95469.66;10398256;28;3164;-70
2023/03/12 21:05:53;;;;;;;;;;;;;;;6.19;100.00;95463.25;10401090;28;2301;-71
2023/03/12 21:10:56;;;;;;;;;;;;;;;6.18;100.00;95461.66;10407898;28;2322;-71
2023/03/12 21:15:58;;;;;;;;;;;;;;;6.13;100.00;95464.25;10404804;28;3160;-69
2023/03/12 21:21:01;;;;;;;;;;;;;;;6.10;100.00;95470.09;10408733;28;3166;-69
2023/03/12 21:26:03;;;;;;;;;;;;;;;6.09;100.00;95473.81;10402559;28;3239;-74
2023/03/12 21:31:10;;;;;;;;;;;;;;;6.16;100.00;95479.75;10400901;28;3198;-79
2023/03/12 21:36:12;;;;;;;;;;;;;;;6.18;100.00;95483.81;10404532;28;3336;-77
2023/03/12 21:41:15;;;;;;;;;;;;;;;6.19;100.00;95490.75;10400246;28;2235;-75
2023/03/12 21:46:18;;;;;;;;;;;;;;;6.25;100.00;95483.59;10402784;28;3175;-71
2023/03/12 21:51:21;;;;;;;;;;;;;;;6.31;100.00;95493.25;10407741;28;3211;-75
2023/03/12 21:56:26;;;;;;;;;;;;;;;6.27;100.00;95480.66;10400986;28;2296;-71
2023/03/12 22:01:29;;;;;;;;;;;;;;;6.25;100.00;95483.59;10406409;28;2327;-69
2023/03/12 22:06:32;;;;;;;;;;;;;;;6.25;100.00;95482.78;10404347;28;3148;-71
2023/03/12 22:11:34;;;;;;;;;;;;;;;6.31;100.00;95471.91;10403048;28;3175;-70
2023/03/12 22:16:37;;;;;;;;;;;;;;;6.28;100.00;95471.59;10398795;28;3190;-70
2023/03/12 22:21:41;;;;;;;;;;;;;;;6.26;100.00;95476.38;10406413;28;3183;-68
2023/03/12 22:26:43;;;;;;;;;;;;;;;6.26;100.00;95477.19;10400456;28;3246;-71
2023/03/12 22:31:46;;;;;;;;;;;;;;;6.31;100.00;95471.09;10397314;28;2290;-70
2023/03/12 22:36:49;;;;;;;;;;;;;;;6.31;100.00;95461.22;10402420;28;3183;-70
2023/03/12 22:41:52;;;;;;;;;;;;;;;6.32;100.00;95454.03;10399391;28;3132;-69
2023/03/12 22:46:58;;;;;;;;;;;;;;;6.39;100.00;95452.75;10416161;28;3185;-70
2023/03/12 22:52:02;;;;;;;;;;;;;;;6.36;100.00;95442.59;10402438;28;3131;-70
2023/03/12 22:57:05;;;;;;;;;;;;;;;6.35;100.00;95440.16;10402748;28;3206;-70
2023/03/12 23:02:08;;;;;;;;;;;;;;;6.28;100.00;95444.91;10397821;28;3120;-70
2023/03/12 23:07:10;;;;;;;;;;;;;;;6.28;100.00;95435.03;10402530;28;3174;-69
2023/03/12 23:12:17;;;;;;;;;;;;;;;6.26;100.00;95421.13;10396237;28;2247;-69
2023/03/12 23:17:20;;;;;;;;;;;;;;;6.34;100.00;95412.66;10396161;28;3175;-70
2023/03/12 23:22:23;;;;;;;;;;;;;;;6.23;100.00;95402.94;10396959;28;3246;-69
2023/03/12 23:27:26;;;;;;;;;;;;;;;6.08;100.00;95400.16;10400101;28;2437;-69
2023/03/12 23:32:29;;;;;;;;;;;;;;;5.90;100.00;95402.09;10403472;28;3199;-71
2023/03/12 23:37:32;;;;;;;;;;;;;;;5.81;100.00;95397.50;10404379;28;3171;-69
2023/03/12 23:42:34;;;;;;;;;;;;;;;5.73;100.00;95396.09;10400451;28;3227;-69
2023/03/12 23:47:36;;;;;;;;;;;;;;;5.75;100.00;95388.66;10407993;28;3256;-68
2023/03/12 23:52:39;;;;;;;;;;;;;;;5.78;100.00;95382.78;10403383;28;3119;-69
2023/03/12 23:57:42;;;;;;;;;;;;;;;5.71;100.00;95371.53;10406420;28;3165;-67
